Time;durP1;ratioP1;P1;durP2;ratioP2;P2;SDS_P1;SDS_P2;PMS_P1;PMS_P2;Temp;Humidity;BMP_temperature;BMP_pressure;BME280_temperature;BME280_humidity;BME280_pressure;Samples;Min_cycle;Max_cycle;Signal;HPM_P1;HPM_P2
2023/01/02 00:01:03;;;;;;;7.95;3.08;;;;;;;1.90;100.00;95868.97;4970568;28;20043;-73
2023/01/02 00:03:30;;;;;;;12.02;3.60;;;;;;;1.90;100.00;95874.16;4966788;28;20042;-73
2023/01/02 00:05:55;;;;;;;7.72;3.50;;;;;;;1.94;100.00;95873.72;4954616;28;20045;-74
2023/01/02 00:08:21;;;;;;;8.15;3.63;;;;;;;1.86;100.00;95861.78;4955628;28;20055;-74
2023/01/02 00:10:46;;;;;;;9.13;3.50;;;;;;;1.78;100.00;95860.22;4955649;28;20116;-74
2023/01/02 00:13:13;;;;;;;8.00;3.45;;;;;;;1.76;100.00;95857.03;4958527;28;20405;-74
2023/01/02 00:15:38;;;;;;;5.72;3.08;;;;;;;1.70;100.00;95847.47;4961994;28;20511;-74
2023/01/02 00:18:04;;;;;;;7.15;3.10;;;;;;;1.75;100.00;95852.03;4971233;28;20050;-75
2023/01/02 00:20:30;;;;;;;7.40;3.30;;;;;;;1.76;100.00;95851.06;4955506;28;20051;-75
2023/01/02 00:22:55;;;;;;;7.78;3.28;;;;;;;1.74;100.00;95848.66;4953627;28;20114;-75
2023/01/02 00:25:21;;;;;;;7.22;3.33;;;;;;;1.73;100.00;95841.88;4964322;28;20051;-75
2023/01/02 00:27:47;;;;;;;7.95;3.42;;;;;;;1.76;100.00;95851.84;4958554;28;20415;-76
2023/01/02 00:30:12;;;;;;;6.82;3.10;;;;;;;1.79;100.00;95841.03;4954541;28;20043;-75
2023/01/02 00:32:38;;;;;;;7.43;3.47;;;;;;;1.93;100.00;95852.19;4957247;28;20039;-75
2023/01/02 00:35:04;;;;;;;6.70;3.13;;;;;;;1.92;100.00;95842.00;4963718;28;20065;-75
2023/01/02 00:37:30;;;;;;;7.47;3.05;;;;;;;1.83;100.00;95847.41;4965374;28;20042;-75
2023/01/02 00:39:55;;;;;;;6.55;3.40;;;;;;;1.77;100.00;95843.06;4968507;28;20457;-76
2023/01/02 00:42:21;;;;;;;6.35;3.15;;;;;;;1.79;100.00;95858.44;4963282;28;20112;-74
2023/01/02 00:44:46;;;;;;;5.55;3.03;;;;;;;1.61;100.00;95843.50;4967484;28;20085;-75
2023/01/02 00:47:12;;;;;;;8.65;3.47;;;;;;;1.68;100.00;95852.88;4960970;28;20047;-75
2023/01/02 00:49:37;;;;;;;5.97;3.08;;;;;;;1.70;100.00;95858.63;4956802;28;20117;-75
2023/01/02 00:52:03;;;;;;;6.25;2.78;;;;;;;1.65;100.00;95849.88;4951916;28;20097;-75
2023/01/02 00:54:29;;;;;;;8.23;3.20;;;;;;;1.63;100.00;95857.06;4951663;28;20516;-75
2023/01/02 00:56:54;;;;;;;7.38;3.00;;;;;;;1.65;100.00;95848.09;4962220;28;20047;-75
2023/01/02 00:59:20;;;;;;;10.25;3.40;;;;;;;1.69;100.00;95845.88;4959027;28;20050;-75
2023/01/02 01:01:45;;;;;;;5.68;2.88;;;;;;;1.77;100.00;95853.44;4963141;28;20480;-75
2023/01/02 01:04:11;;;;;;;7.85;3.50;;;;;;;1.74;100.00;95846.06;4963003;28;20051;-75
2023/01/02 01:06:36;;;;;;;8.45;3.17;;;;;;;1.56;100.00;95837.13;4959241;28;20148;-75
2023/01/02 01:09:02;;;;;;;6.13;3.00;;;;;;;1.54;100.00;95839.13;4969332;28;20105;-75
2023/01/02 01:11:28;;;;;;;7.53;3.25;;;;;;;1.54;100.00;95849.50;4954315;28;20106;-75
2023/01/02 01:13:53;;;;;;;9.68;2.90;;;;;;;1.54;100.00;95839.13;4952042;28;20130;-74
2023/01/02 01:16:19;;;;;;;9.02;3.25;;;;;;;1.56;100.00;95849.31;4961558;28;20042;-75
2023/01/02 01:18:46;;;;;;;8.30;3.17;;;;;;;1.45;100.00;95835.19;4959874;28;20044;-75
2023/01/02 01:21:17;;;;;;;13.02;3.50;;;;;;;1.60;100.00;95844.53;4962115;28;20494;-75
2023/01/02 01:23:43;;;;;;;7.25;3.50;;;;;;;1.65;100.00;95844.69;4971674;28;20073;-75
2023/01/02 01:26:11;;;;;;;7.40;3.10;;;;;;;1.71;100.00;95854.25;4964836;28;20051;-75
2023/01/02 01:28:36;;;;;;;8.98;3.28;;;;;;;1.63;100.00;95847.50;4966709;28;20105;-75
2023/01/02 01:31:08;;;;;;;5.25;2.80;;;;;;;1.68;100.00;95859.84;4955567;28;20063;-75
2023/01/02 01:33:33;;;;;;;8.48;3.00;;;;;;;1.55;100.00;95856.28;4957257;28;20102;-75
2023/01/02 01:36:08;;;;;;;7.75;3.33;;;;;;;1.56;100.00;95855.28;4950318;28;20067;-75
2023/01/02 01:38:33;;;;;;;6.22;3.00;;;;;;;1.53;100.00;95853.09;4967186;28;20081;-75
2023/01/02 01:40:59;;;;;;;6.85;3.30;;;;;;;1.59;100.00;95850.69;4966173;28;20039;-76
2023/01/02 01:43:35;;;;;;;8.13;3.15;;;;;;;1.53;100.00;95847.91;4966108;28;20556;-75
2023/01/02 01:46:01;;;;;;;7.38;3.35;;;;;;;1.47;100.00;95835.75;4959790;28;20039;-75
2023/01/02 01:48:26;;;;;;;6.45;3.30;;;;;;;1.41;100.00;95844.38;4963822;28;20150;-76
2023/01/02 01:50:52;;;;;;;7.43;3.00;;;;;;;1.47;100.00;95848.72;4972731;28;20122;-74
2023/01/02 01:53:21;;;;;;;9.50;3.53;;;;;;;1.34;100.00;95851.34;4958960;28;20043;-74
2023/01/02 01:55:54;;;;;;;6.80;3.47;;;;;;;1.28;100.00;95854.75;4962837;28;20050;-74
2023/01/02 01:58:23;;;;;;;5.45;2.72;;;;;;;1.31;100.00;95849.16;4969418;28;20054;-75
2023/01/02 02:00:50;;;;;;;7.30;3.05;;;;;;;1.33;100.00;95847.16;4955002;28;20536;-74
2023/01/02 02:03:19;;;;;;;7.63;3.15;;;;;;;1.30;100.00;95847.56;4966081;28;20464;-74
2023/01/02 02:05:46;;;;;;;11.05;3.45;;;;;;;1.41;100.00;95849.53;4962125;28;20515;-74
2023/01/02 02:08:25;;;;;;;7.50;3.05;;;;;;;1.51;100.00;95854.31;4958037;28;20118;-75
2023/01/02 02:10:53;;;;;;;13.80;3.25;;;;;;;1.38;100.00;95855.94;4953574;28;20113;-74
2023/01/02 02:13:19;;;;;;;5.93;3.05;;;;;;;1.27;100.00;95848.75;4961360;28;20568;-74
2023/01/02 02:15:53;;;;;;;5.53;2.85;;;;;;;1.32;100.00;95850.75;4963831;28;20657;-74
2023/01/02 02:18:45;;;;;;;11.43;2.90;;;;;;;1.24;100.00;95843.19;4968425;28;20571;-74
2023/01/02 02:21:21;;;;;;;6.85;3.05;;;;;;;1.13;100.00;95840.19;4943017;28;20046;-74
2023/01/02 02:24:05;;;;;;;8.63;3.33;;;;;;;1.16;100.00;95832.00;4967017;28;20073;-74
2023/01/02 02:26:30;;;;;;;10.05;3.22;;;;;;;1.23;100.00;95846.78;4966364;28;20378;-74
2023/01/02 02:29:22;;;;;;;6.70;3.03;;;;;;;1.18;100.00;95848.19;4973823;28;20420;-74
2023/01/02 02:32:04;;;;;;;9.85;3.22;;;;;;;0.99;100.00;95831.66;4948968;28;20110;-76
2023/01/02 02:34:50;;;;;;;6.68;2.80;;;;;;;0.97;100.00;95838.03;4957575;28;20046;-74
2023/01/02 02:37:30;;;;;;;7.22;2.90;;;;;;;0.91;100.00;95829.25;4963981;28;20098;-74
2023/01/02 02:40:18;;;;;;;7.10;2.90;;;;;;;0.92;100.00;95830.03;4971964;28;20448;-75
2023/01/02 02:42:56;;;;;;;7.00;3.22;;;;;;;0.85;100.00;95830.84;4963890;28;20505;-74
2023/01/02 02:45:24;;;;;;;5.85;2.85;;;;;;;0.89;100.00;95825.28;4963962;28;20121;-74
2023/01/02 02:48:11;;;;;;;5.78;2.53;;;;;;;0.83;100.00;95832.88;4950020;28;20131;-74
2023/01/02 02:50:50;;;;;;;6.80;3.10;;;;;;;0.75;100.00;95835.66;4960647;28;20557;-74
2023/01/02 02:53:19;;;;;;;7.47;3.00;;;;;;;0.81;100.00;95824.47;4954099;28;20580;-74
2023/01/02 02:55:51;;;;;;;6.18;2.78;;;;;;;0.81;100.00;95829.66;4956436;28;20085;-74
2023/01/02 02:58:18;;;;;;;5.53;2.50;;;;;;;0.71;100.00;95811.13;4961441;28;20035;-74
2023/01/02 03:00:44;;;;;;;6.13;2.97;;;;;;;0.74;100.00;95817.72;4965317;28;20046;-74
2023/01/02 03:03:28;;;;;;;5.50;2.80;;;;;;;0.73;100.00;95810.94;4971442;28;20047;-74
2023/01/02 03:06:17;;;;;;;6.07;2.58;;;;;;;0.69;100.00;95815.72;4950114;28;20054;-75
2023/01/02 03:08:49;;;;;;;5.90;2.50;;;;;;;0.76;100.00;95821.72;4969702;28;20460;-75
2023/01/02 03:11:15;;;;;;;9.57;3.17;;;;;;;0.51;100.00;95814.50;4970204;28;20039;-75
2023/01/02 03:13:44;;;;;;;5.30;2.53;;;;;;;0.64;100.00;95815.50;4954518;28;20039;-75
2023/01/02 03:16:29;;;;;;;7.30;3.03;;;;;;;0.66;100.00;95805.72;4961278;28;20696;-75
2023/01/02 03:19:04;;;;;;;6.70;2.80;;;;;;;0.80;100.00;95817.69;4941798;28;20051;-75
2023/01/02 03:21:41;;;;;;;6.65;3.00;;;;;;;0.68;100.00;95799.38;4964302;28;20078;-75
2023/01/02 03:24:15;;;;;;;5.10;2.50;;;;;;;0.69;100.00;95805.38;4967403;28;20101;-76
2023/01/02 03:26:43;;;;;;;9.00;2.95;;;;;;;0.71;100.00;95798.19;4967898;28;20050;-75
2023/01/02 03:29:15;;;;;;;7.70;3.00;;;;;;;0.61;100.00;95792.59;4957371;28;20065;-75
2023/01/02 03:31:46;;;;;;;6.85;2.58;;;;;;;0.67;100.00;95791.78;4967072;28;20099;-75
2023/01/02 03:34:16;;;;;;;5.63;2.60;;;;;;;0.67;100.00;95796.97;4965907;28;20432;-75
2023/01/02 03:36:46;;;;;;;5.70;2.97;;;;;;;0.66;100.00;95790.19;4957405;28;20058;-76
2023/01/02 03:39:17;;;;;;;4.97;2.55;;;;;;;0.57;100.00;95791.41;4965210;28;20097;-74
2023/01/02 03:41:50;;;;;;;6.65;2.92;;;;;;;0.49;100.00;95784.63;4953774;28;20196;-74
2023/01/02 03:44:17;;;;;;;7.13;2.92;;;;;;;0.45;100.00;95786.81;4953343;28;20045;-74
2023/01/02 03:46:47;;;;;;;7.68;2.92;;;;;;;0.45;100.00;95784.22;4964151;28;20489;-75
2023/01/02 03:49:22;;;;;;;7.40;2.90;;;;;;;0.43;100.00;95778.47;4957012;28;20056;-75
2023/01/02 03:51:48;;;;;;;;;;;;;;;0.42;100.00;95784.63;4951797;28;20601;-75
2023/01/02 03:54:15;;;;;;;6.90;2.65;;;;;;;0.46;100.00;95791.00;4964187;28;19926;-75
2023/01/02 03:56:58;;;;;;;6.82;2.80;;;;;;;0.45;100.00;95779.03;4970880;28;20470;-75
2023/01/02 03:59:38;;;;;;;5.15;2.40;;;;;;;0.39;100.00;95777.25;4961895;28;20575;-75
2023/01/02 04:02:17;;;;;;;5.40;2.60;;;;;;;0.42;100.00;95774.28;4970467;28;20071;-75
2023/01/02 04:04:49;;;;;;;6.93;2.97;;;;;;;0.45;100.00;95767.91;4963875;28;20054;-75
2023/01/02 04:07:25;;;;;;;5.20;2.78;;;;;;;0.47;100.00;95777.03;4963864;28;20549;-75
2023/01/02 04:09:53;;;;;;;6.22;3.20;;;;;;;0.53;100.00;95770.28;4962217;28;20047;-75
2023/01/02 04:12:22;;;;;;;5.50;2.58;;;;;;;0.42;100.00;95774.28;4956510;28;20074;-75
2023/01/02 04:14:58;;;;;;;5.72;2.67;;;;;;;0.42;100.00;95771.69;4951960;28;20073;-75
2023/01/02 04:17:28;;;;;;;6.18;2.80;;;;;;;0.40;100.00;95778.03;4955957;28;20129;-75
2023/01/02 04:20:09;;;;;;;5.70;2.72;;;;;;;0.33;100.00;95780.63;4959242;28;20039;-75
2023/01/02 04:22:42;;;;;;;6.63;2.40;;;;;;;0.31;100.00;95777.44;4960277;28;20564;-75
2023/01/02 04:25:12;;;;;;;7.80;2.85;;;;;;;0.34;100.00;95777.03;4962171;28;20440;-75
2023/01/02 04:27:53;;;;;;;7.05;2.97;;;;;;;0.34;100.00;95771.88;4963713;28;20046;-75
2023/01/02 04:30:19;;;;;;;5.65;2.72;;;;;;;0.27;100.00;95753.72;4959575;28;20042;-75
2023/01/02 04:32:46;;;;;;;5.47;2.60;;;;;;;0.32;100.00;95763.50;4952156;28;20880;-75
2023/01/02 04:35:19;;;;;;;5.68;2.53;;;;;;;0.30;100.00;95765.47;4957517;28;20046;-75
2023/01/02 04:37:45;;;;;;;6.75;2.90;;;;;;;0.24;100.00;95761.09;4956172;28;20061;-74
2023/01/02 04:40:13;;;;;;;6.90;2.78;;;;;;;0.29;100.00;95766.50;4965240;28;20038;-75
2023/01/02 04:42:39;;;;;;;5.18;3.00;;;;;;;0.27;100.00;95758.13;4963529;28;20125;-75
2023/01/02 04:45:05;;;;;;;6.70;2.70;;;;;;;0.29;100.00;95764.69;4969218;28;20050;-75
2023/01/02 04:47:31;;;;;;;5.90;2.85;;;;;;;0.23;100.00;95760.31;4957308;28;20050;-75
2023/01/02 04:49:56;;;;;;;6.93;2.60;;;;;;;0.18;100.00;95757.50;4956899;28;20069;-75
2023/01/02 04:52:22;;;;;;;5.05;2.60;;;;;;;0.16;100.00;95768.06;4954502;28;20039;-75
2023/01/02 04:54:47;;;;;;;6.80;2.67;;;;;;;0.17;100.00;95767.09;4955883;28;20105;-75
2023/01/02 04:57:13;;;;;;;6.57;2.45;;;;;;;0.08;100.00;95763.06;4961714;28;20050;-75
2023/01/02 04:59:38;;;;;;;5.90;2.53;;;;;;;0.41;100.00;95782.22;4969584;28;20608;-75
2023/01/02 05:02:04;;;;;;;4.45;2.42;;;;;;;0.33;100.00;95783.22;4964876;28;20043;-75
2023/01/02 05:04:29;;;;;;;6.05;2.80;;;;;;;0.21;100.00;95777.03;4969193;28;20118;-75
2023/01/02 05:06:55;;;;;;;4.90;2.63;;;;;;;0.13;100.00;95771.06;4957893;28;20044;-75
2023/01/02 05:09:21;;;;;;;4.65;2.65;;;;;;;0.11;100.00;95788.56;4952367;28;20047;-75
2023/01/02 05:11:46;;;;;;;8.00;3.00;;;;;;;0.24;100.00;95792.16;4960463;28;20051;-75
2023/01/02 05:14:12;;;;;;;6.57;2.58;;;;;;;0.33;100.00;95793.56;4947274;28;20039;-75
2023/01/02 05:16:37;;;;;;;6.25;2.97;;;;;;;0.26;100.00;95795.34;4959751;28;20039;-75
2023/01/02 05:19:03;;;;;;;7.55;2.80;;;;;;;0.31;100.00;95800.75;4944024;28;20090;-75
2023/01/02 05:24:12;;;;;;;4.63;2.33;;;;;;;0.21;100.00;95795.16;4951841;28;20713;-75
2023/01/02 05:26:38;;;;;;;6.25;2.72;;;;;;;0.20;100.00;95785.78;4961114;28;20293;-75
2023/01/02 05:29:03;;;;;;;6.85;2.90;;;;;;;0.22;100.00;95789.00;4960060;28;20047;-75
2023/01/02 05:31:29;;;;;;;7.38;2.80;;;;;;;0.13;100.00;95790.94;4963055;28;20047;-76
2023/01/02 05:33:57;;;;;;;8.95;2.97;;;;;;;0.13;100.00;95791.75;4956499;28;20449;-75
2023/01/02 05:36:24;;;;;;;7.28;3.08;;;;;;;0.10;100.00;95789.56;4962691;28;20043;-75
2023/01/02 05:38:50;;;;;;;7.20;2.60;;;;;;;0.19;100.00;95786.78;4933186;28;20048;-76
2023/01/02 05:41:15;;;;;;;4.88;2.40;;;;;;;0.18;100.00;95791.16;4963321;28;20500;-76
2023/01/02 05:43:41;;;;;;;5.05;2.58;;;;;;;0.14;100.00;95788.19;4968303;28;20050;-75
2023/01/02 05:46:15;;;;;;;6.82;2.67;;;;;;;0.13;100.00;95791.75;4952209;28;20075;-75
2023/01/02 05:48:41;;;;;;;6.57;2.38;;;;;;;0.12;100.00;95790.16;4958927;28;20051;-75
2023/01/02 05:51:08;;;;;;;5.18;2.40;;;;;;;0.10;100.00;95776.63;4962771;28;20424;-75
2023/01/02 05:53:34;;;;;;;7.25;3.17;;;;;;;-0.02;100.00;95778.97;4955246;28;20465;-75
2023/01/02 05:56:09;;;;;;;4.15;2.40;;;;;;;-0.01;100.00;95784.97;4951355;28;20035;-75
2023/01/02 05:58:35;;;;;;;;;;;;;;;0.03;100.00;95791.34;4956437;28;20073;-75
2023/01/02 06:01:09;;;;;;;58.05;12.25;;;;;;;0.04;100.00;95782.56;4965230;28;19922;-76
2023/01/02 06:03:35;;;;;;;26.80;8.43;;;;;;;0.00;100.00;95776.22;4960175;28;20047;-76
2023/01/02 06:06:08;;;;;;;18.40;5.25;;;;;;;0.01;100.00;95782.97;4955234;28;20039;-75
2023/01/02 06:08:35;;;;;;;9.48;3.67;;;;;;;-0.02;100.00;95788.53;4966785;28;20066;-75
2023/01/02 06:11:01;;;;;;;7.47;3.40;;;;;;;-0.04;100.00;95790.53;4947348;28;20078;-75
2023/01/02 06:13:29;;;;;;;10.45;3.20;;;;;;;0.01;100.00;95793.31;4951001;28;20040;-75
2023/01/02 06:15:55;;;;;;;9.38;3.92;;;;;;;0.16;100.00;95791.34;4960549;28;20075;-75
2023/01/02 06:18:21;;;;;;;10.27;2.85;;;;;;;0.48;100.00;95804.53;4959159;28;20050;-76
2023/01/02 06:20:47;;;;;;;7.25;3.05;;;;;;;0.90;100.00;95816.50;4962740;28;20039;-75
2023/01/02 06:23:13;;;;;;;10.23;2.83;;;;;;;0.95;100.00;95803.72;4953661;28;20067;-75
2023/01/02 06:25:39;;;;;;;6.70;2.95;;;;;;;0.92;100.00;95814.50;4951652;28;20043;-75
2023/01/02 06:28:04;;;;;;;6.15;2.75;;;;;;;0.84;100.00;95813.72;4962143;28;20039;-75
2023/01/02 06:30:30;;;;;;;7.97;2.88;;;;;;;1.10;100.00;95812.09;4969320;28;20089;-75
2023/01/02 06:32:56;;;;;;;14.07;2.88;;;;;;;0.98;100.00;95808.53;4971477;28;20045;-75
2023/01/02 06:35:22;;;;;;;12.65;3.10;;;;;;;0.85;100.00;95809.34;4964816;28;20047;-75
2023/01/02 06:37:48;;;;;;;13.98;3.05;;;;;;;0.79;100.00;95810.94;4959701;28;20047;-75
2023/01/02 06:40:14;;;;;;;9.52;3.53;;;;;;;0.73;100.00;95806.53;4963459;28;20537;-74
2023/01/02 06:42:43;;;;;;;21.73;3.38;;;;;;;0.48;100.00;95808.94;4959724;28;20098;-75
2023/01/02 06:45:09;;;;;;;8.05;3.10;;;;;;;0.43;100.00;95806.94;4954097;28;20077;-75
2023/01/02 06:47:34;;;;;;;8.57;2.97;;;;;;;0.62;100.00;95815.72;4945244;28;20054;-75
2023/01/02 06:50:00;;;;;;;10.18;2.95;;;;;;;0.59;100.00;95817.88;4951473;28;20048;-75
2023/01/02 06:52:27;;;;;;;7.10;3.10;;;;;;;0.40;100.00;95807.31;4961194;28;20039;-75
2023/01/02 06:54:52;;;;;;;9.05;3.10;;;;;;;0.36;100.00;95816.50;4970258;28;20061;-75
2023/01/02 06:57:18;;;;;;;12.48;2.90;;;;;;;0.38;100.00;95809.31;4962956;28;20047;-75
2023/01/02 06:59:44;;;;;;;10.38;2.90;;;;;;;0.30;100.00;95809.50;4961244;28;20402;-75
2023/01/02 07:02:11;;;;;;;8.35;2.97;;;;;;;0.21;100.00;95808.88;4962620;28;20180;-75
2023/01/02 07:04:36;;;;;;;8.77;3.33;;;;;;;0.31;100.00;95813.69;4971719;28;20043;-74
2023/01/02 07:07:02;;;;;;;8.55;3.15;;;;;;;0.15;100.00;95815.63;4954374;28;20409;-74
2023/01/02 07:09:28;;;;;;;6.63;3.17;;;;;;;0.11;100.00;95814.44;4950705;28;20101;-75
2023/01/02 07:11:54;;;;;;;11.00;2.90;;;;;;;0.13;100.00;95809.88;4951181;28;20043;-75
2023/01/02 07:14:19;;;;;;;10.07;2.97;;;;;;;0.11;100.00;95804.06;4946616;28;20050;-75
2023/01/02 07:16:45;;;;;;;6.95;3.20;;;;;;;0.05;100.00;95804.88;4945891;28;20066;-75
2023/01/02 07:19:10;;;;;;;7.35;3.03;;;;;;;0.10;100.00;95807.69;4949887;28;20044;-74
2023/01/02 07:21:36;;;;;;;7.70;3.08;;;;;;;0.23;100.00;95811.28;4961054;28;20047;-74
2023/01/02 07:24:02;;;;;;;7.45;2.80;;;;;;;0.13;100.00;95811.66;4966840;28;20050;-74
2023/01/02 07:26:27;;;;;;;5.75;2.58;;;;;;;0.08;100.00;95814.81;4960726;28;20092;-74
2023/01/02 07:28:53;;;;;;;6.55;2.83;;;;;;;0.05;100.00;95810.03;4952263;28;20047;-74
2023/01/02 07:31:21;;;;;;;13.73;3.35;;;;;;;0.02;100.00;95813.03;4964119;28;20159;-74
2023/01/02 07:33:46;;;;;;;8.18;3.08;;;;;;;0.03;100.00;95817.22;4970982;28;20077;-74
2023/01/02 07:36:15;;;;;;;7.95;2.67;;;;;;;0.13;100.00;95828.00;4954782;28;20953;-75
2023/01/02 07:38:41;;;;;;;7.85;3.38;;;;;;;0.08;100.00;95830.34;4955051;28;20074;-75
2023/01/02 07:41:15;;;;;;;9.50;2.75;;;;;;;0.19;100.00;95835.94;4955572;28;20082;-75
2023/01/02 07:43:41;;;;;;;;;;;;;;;0.24;100.00;95843.94;4971035;28;20035;-75
2023/01/02 07:46:07;;;;;;;6.85;2.40;;;;;;;0.30;100.00;95848.31;4970458;28;19922;-75
2023/01/02 07:48:33;;;;;;;6.05;2.40;;;;;;;0.32;100.00;95843.75;4965616;28;20069;-73
2023/01/02 07:51:03;;;;;;;5.95;2.47;;;;;;;0.32;100.00;95846.34;4963188;28;20047;-77
2023/01/02 07:53:29;;;;;;;6.93;2.78;;;;;;;0.32;100.00;95844.56;4977256;28;20039;-75
2023/01/02 07:55:56;;;;;;;9.00;2.58;;;;;;;0.39;100.00;95838.59;4957427;28;20039;-75
2023/01/02 07:58:22;;;;;;;7.72;2.78;;;;;;;0.32;100.00;95841.19;4952849;28;20036;-73
2023/01/02 08:00:48;;;;;;;6.57;2.83;;;;;;;0.39;100.00;95836.81;4959250;28;20090;-74
2023/01/02 08:03:14;;;;;;;6.80;2.50;;;;;;;0.39;100.00;95821.28;4955935;28;20047;-75
2023/01/02 08:05:40;;;;;;;8.40;3.67;;;;;;;0.54;100.00;95828.84;4966239;28;20545;-77
2023/01/02 08:08:05;;;;;;;18.35;7.45;;;;;;;0.58;100.00;95829.25;4942345;28;20581;-74
2023/01/02 08:10:31;;;;;;;15.65;5.82;;;;;;;0.63;100.00;95837.22;4942222;29;20040;-74
2023/01/02 08:12:56;;;;;;;10.23;4.25;;;;;;;0.64;100.00;95820.69;4945948;28;20441;-74
2023/01/02 08:15:23;;;;;;;9.20;2.97;;;;;;;0.95;100.00;95842.59;4960662;28;20039;-73
2023/01/02 08:17:49;;;;;;;9.85;3.42;;;;;;;1.11;100.00;95847.38;4952747;28;20096;-73
2023/01/02 08:20:15;;;;;;;9.13;3.20;;;;;;;1.23;100.00;95841.59;4952535;28;20039;-73
2023/01/02 08:22:40;;;;;;;6.90;3.15;;;;;;;1.33;100.00;95837.56;4952313;28;20035;-72
2023/01/02 08:25:08;;;;;;;7.05;2.90;;;;;;;1.43;100.00;95842.34;4962062;28;20102;-73
2023/01/02 08:27:33;;;;;;;19.88;4.35;;;;;;;1.44;100.00;95843.94;4945393;29;20057;-73
2023/01/02 08:29:59;;;;;;;41.00;10.10;;;;;;;1.51;100.00;95849.91;4950404;28;20121;-75
2023/01/02 08:32:25;;;;;;;24.25;7.68;;;;;;;1.58;100.00;95849.09;4953546;28;20040;-74
2023/01/02 08:34:51;;;;;;;14.50;5.70;;;;;;;1.65;100.00;95849.88;4948336;28;20811;-74
2023/01/02 08:37:16;;;;;;;19.10;4.35;;;;;;;1.88;100.00;95860.59;4951882;28;20050;-72
2023/01/02 08:39:42;;;;;;;8.02;3.13;;;;;;;1.93;100.00;95841.00;4937667;28;20106;-75
2023/01/02 08:42:07;;;;;;;8.05;3.15;;;;;;;2.12;100.00;95854.91;4935109;29;20043;-76
2023/01/02 08:44:36;;;;;;;7.70;2.88;;;;;;;2.16;100.00;95856.88;4934234;29;20059;-75
2023/01/02 08:47:03;;;;;;;9.75;3.33;;;;;;;2.32;100.00;95870.38;4944965;28;20047;-76
2023/01/02 08:49:29;;;;;;;11.52;3.30;;;;;;;2.43;100.00;95870.50;4949148;28;20051;-77
2023/01/02 08:51:54;;;;;;;10.90;2.85;;;;;;;2.58;100.00;95870.22;4952629;28;20058;-76
2023/01/02 08:54:20;;;;;;;9.75;2.63;;;;;;;2.67;100.00;95873.38;4952060;28;20040;-74
2023/01/02 08:56:47;;;;;;;6.57;2.80;;;;;;;2.84;100.00;95878.84;4944722;28;20564;-75
2023/01/02 08:59:13;;;;;;;6.28;2.67;;;;;;;2.98;100.00;95887.34;4935546;29;20050;-77
2023/01/02 09:01:39;;;;;;;7.30;2.45;;;;;;;3.08;100.00;95889.47;4950258;29;20047;-74
2023/01/02 09:04:06;;;;;;;4.70;2.55;;;;;;;3.30;100.00;95876.88;4947545;28;20106;-72
2023/01/02 09:06:34;;;;;;;8.73;2.60;;;;;;;3.38;100.00;95878.44;4946334;28;20064;-72
2023/01/02 09:09:00;;;;;;;5.03;2.50;;;;;;;3.50;100.00;95881.13;4942588;28;20055;-73
2023/01/02 09:11:37;;;;;;;10.68;2.75;;;;;;;3.67;100.00;95886.56;4942852;29;20046;-71
2023/01/02 09:14:04;;;;;;;9.60;2.50;;;;;;;3.75;100.00;95873.25;4950516;29;20054;-72
2023/01/02 09:16:31;;;;;;;9.18;2.78;;;;;;;3.85;100.00;95868.34;4937735;28;20407;-72
2023/01/02 09:18:58;;;;;;;15.90;2.90;;;;;;;4.03;100.00;95884.97;4951257;28;20034;-73
2023/01/02 09:21:24;;;;;;;9.05;2.78;;;;;;;4.19;100.00;95884.38;4959315;28;20062;-73
2023/01/02 09:23:50;;;;;;;5.18;2.45;;;;;;;4.32;100.00;95884.22;4950880;29;20064;-73
2023/01/02 09:26:16;;;;;;;5.93;2.75;;;;;;;4.39;100.00;95867.69;4939389;28;20048;-73
2023/01/02 09:28:42;;;;;;;12.02;2.80;;;;;;;4.53;100.00;95884.75;4952046;28;20047;-73
2023/01/02 09:31:10;;;;;;;11.02;2.67;;;;;;;4.62;100.00;95883.41;4953289;28;20042;-75
2023/01/02 09:33:36;;;;;;;4.88;2.33;;;;;;;4.72;100.00;95888.09;4949795;28;20044;-75
2023/01/02 09:36:03;;;;;;;4.22;2.50;;;;;;;4.90;100.00;95884.63;4934582;28;20048;-75
2023/01/02 09:38:29;;;;;;;5.78;2.53;;;;;;;5.09;100.00;95871.50;4948778;28;20047;-76
2023/01/02 09:40:57;;;;;;;5.97;2.85;;;;;;;5.24;100.00;95869.22;4952585;28;20118;-73
2023/01/02 09:43:32;;;;;;;5.57;2.65;;;;;;;5.50;100.00;95877.63;4949604;28;20043;-73
2023/01/02 09:46:01;;;;;;;6.80;2.75;;;;;;;5.94;100.00;95877.25;4936157;29;20047;-73
2023/01/02 09:48:31;;;;;;;7.53;2.45;;;;;;;7.12;100.00;95876.78;4944505;28;20051;-74
2023/01/02 09:50:57;;;;;;;10.18;2.60;;;;;;;8.87;100.00;95867.66;4947867;29;20047;-74
2023/01/02 09:53:25;;;;;;;3.92;2.28;;;;;;;10.11;100.00;95863.97;4944640;29;20043;-74
2023/01/02 09:56:00;;;;;;;5.95;2.67;;;;;;;10.92;100.00;95860.78;4944205;28;20079;-75
2023/01/02 09:58:44;;;;;;;11.02;2.72;;;;;;;11.47;100.00;95857.59;4946077;28;20039;-74
2023/01/02 10:01:15;;;;;;;6.65;2.85;;;;;;;12.42;100.00;95865.75;4948602;29;20066;-74
2023/01/02 10:03:41;;;;;;;7.53;3.55;;;;;;;12.92;99.93;95868.38;4947097;29;20051;-77
2023/01/02 10:06:24;;;;;;;10.20;3.97;;;;;;;13.49;86.20;95871.38;4935870;29;20048;-78
2023/01/02 10:09:17;;;;;;;10.18;4.00;;;;;;;13.94;75.75;95871.97;4946327;28;20047;-79
2023/01/02 10:11:51;;;;;;;9.50;3.33;;;;;;;14.47;70.03;95872.94;4955264;28;20135;-78
2023/01/02 10:14:52;;;;;;;8.13;3.30;;;;;;;15.17;67.34;95855.53;4954970;28;20051;-77
2023/01/02 10:17:18;;;;;;;5.22;2.92;;;;;;;14.75;70.06;95857.22;4936200;29;20044;-78
2023/01/02 10:19:56;;;;;;;6.35;2.70;;;;;;;15.51;67.51;95846.47;4945297;28;20047;-78
2023/01/02 10:22:44;;;;;;;9.35;2.88;;;;;;;16.55;60.78;95851.38;4951428;28;20039;-74
2023/01/02 10:25:18;;;;;;;6.43;2.67;;;;;;;16.91;54.90;95853.28;4951490;28;20078;-76
2023/01/02 10:28:00;;;;;;;5.78;3.00;;;;;;;17.17;55.38;95856.16;4947221;28;20055;-76
2023/01/02 10:30:31;;;;;;;5.18;2.60;;;;;;;17.72;59.44;95839.06;4965953;28;20035;-78
2023/01/02 10:33:22;;;;;;;6.22;2.78;;;;;;;18.29;53.87;95834.91;4962932;28;20556;-76
2023/01/02 10:35:54;;;;;;;6.13;2.80;;;;;;;18.87;48.73;95823.03;4955714;28;20046;-75
2023/01/02 10:38:20;;;;;;;6.90;2.50;;;;;;;19.02;48.61;95829.78;4953768;28;20046;-75
2023/01/02 10:40:48;;;;;;;8.45;2.40;;;;;;;19.37;44.33;95828.94;4965815;28;20096;-76
2023/01/02 10:43:15;;;;;;;5.20;2.60;;;;;;;19.10;45.25;95836.19;4957455;28;20441;-75
2023/01/02 10:45:42;;;;;;;5.07;2.90;;;;;;;18.82;44.48;95820.50;4961068;28;20096;-76
2023/01/02 10:48:11;;;;;;;4.55;2.20;;;;;;;19.59;42.37;95811.91;4957044;28;20074;-76
2023/01/02 10:50:51;;;;;;;3.90;2.17;;;;;;;17.55;45.06;95804.41;4965678;28;20047;-76
2023/01/02 10:53:35;;;;;;;5.65;2.08;;;;;;;17.64;51.64;95805.19;4967385;28;20047;-76
2023/01/02 10:56:14;;;;;;;5.03;1.95;;;;;;;18.38;53.54;95790.38;4960766;28;20043;-76
2023/01/02 10:58:46;;;;;;;3.40;2.00;;;;;;;17.24;54.87;95797.19;4960281;28;20501;-76
2023/01/02 11:01:12;;;;;;;12.05;2.50;;;;;;;17.11;48.81;95794.31;4965807;28;20039;-75
2023/01/02 11:03:38;;;;;;;7.18;2.22;;;;;;;17.35;48.54;95798.50;4965637;28;20437;-76
2023/01/02 11:06:17;;;;;;;5.28;2.30;;;;;;;17.90;51.63;95800.03;4963162;28;20125;-74
2023/01/02 11:08:43;;;;;;;6.13;2.40;;;;;;;17.23;54.98;95803.63;4952094;28;20039;-76
2023/01/02 11:11:16;;;;;;;10.23;2.60;;;;;;;17.34;50.80;95806.78;4954328;28;20126;-74
2023/01/02 11:13:47;;;;;;;8.88;2.75;;;;;;;17.32;52.14;95815.06;4961836;28;20042;-76
2023/01/02 11:16:15;;;;;;;8.15;2.22;;;;;;;17.02;52.35;95809.41;4963427;28;20046;-76
2023/01/02 11:18:52;;;;;;;8.07;2.50;;;;;;;16.48;55.51;95813.81;4961934;28;20395;-77
2023/01/02 11:21:31;;;;;;;5.18;2.40;;;;;;;15.34;55.26;95808.06;4967475;28;20046;-78
2023/01/02 11:24:14;;;;;;;8.57;2.60;;;;;;;15.69;58.97;95805.06;4959069;28;20039;-76
2023/01/02 11:26:42;;;;;;;11.60;2.80;;;;;;;16.73;56.41;95810.59;4949830;28;20043;-76
2023/01/02 11:29:19;;;;;;;10.30;3.00;;;;;;;16.15;49.78;95806.81;4962403;28;20482;-78
2023/01/02 11:31:50;;;;;;;6.40;2.65;;;;;;;16.34;55.11;95809.34;4953948;28;20091;-75
2023/01/02 11:34:26;;;;;;;6.88;2.72;;;;;;;16.60;52.38;95814.09;4965412;28;20583;-76
2023/01/02 11:37:03;;;;;;;5.90;3.00;;;;;;;16.21;55.21;95807.50;4954051;28;20035;-76
2023/01/02 11:39:31;;;;;;;6.35;2.90;;;;;;;16.07;51.41;95810.94;4965734;28;20113;-75
2023/01/02 11:45:05;;;;;;;13.02;3.20;;;;;;;15.48;54.89;95820.56;4947944;28;20126;-75
2023/01/02 11:47:41;;;;;;;14.05;3.03;;;;;;;15.01;58.67;95812.56;4951651;28;20091;-75